Time;durP1;ratioP1;P1;durP2;ratioP2;P2;SDS_P1;SDS_P2;PMS_P1;PMS_P2;Temp;Humidity;BMP_temperature;BMP_pressure;BME280_temperature;BME280_humidity;BME280_pressure;Samples;Min_cycle;Max_cycle;Signal;HPM_P1;HPM_P2
2022/06/26 00:01:01;;;;;;;8.35;2.58;;;;;;;;;;6122359;23;20018;-56
2022/06/26 00:03:28;;;;;;;13.90;2.63;;;;;;;;;;6145570;23;20084;-56
2022/06/26 00:05:55;;;;;;;7.68;2.25;;;;;;;;;;6142345;23;20017;-54
2022/06/26 00:08:22;;;;;;;15.73;2.63;;;;;;;;;;6118498;23;20028;-57
2022/06/26 00:10:49;;;;;;;9.20;2.40;;;;;;;;;;6109755;23;20026;-57
2022/06/26 00:13:17;;;;;;;6.63;2.20;;;;;;;;;;6147103;23;20014;-58
2022/06/26 00:15:45;;;;;;;8.05;2.13;;;;;;;;;;6137206;23;20085;-57
2022/06/26 00:18:12;;;;;;;7.70;2.42;;;;;;;;;;6149967;23;20025;-56
2022/06/26 00:20:39;;;;;;;6.57;2.78;;;;;;;;;;6135777;23;20049;-57
2022/06/26 00:23:05;;;;;;;10.25;2.20;;;;;;;;;;6152218;23;20017;-56
2022/06/26 00:25:32;;;;;;;11.10;2.90;;;;;;;;;;6112930;23;20010;-55
2022/06/26 00:27:58;;;;;;;10.75;3.50;;;;;;;;;;6146618;23;20021;-56
2022/06/26 00:30:25;;;;;;;10.73;2.70;;;;;;;;;;6134859;23;20013;-55
2022/06/26 00:32:53;;;;;;;10.35;2.35;;;;;;;;;;6148801;23;20482;-55
2022/06/26 00:35:19;;;;;;;8.55;2.58;;;;;;;;;;6144915;23;20471;-55
2022/06/26 00:37:46;;;;;;;15.40;3.03;;;;;;;;;;6144910;23;20080;-57
2022/06/26 00:40:13;;;;;;;8.07;2.72;;;;;;;;;;6139787;23;20495;-57
2022/06/26 00:42:39;;;;;;;5.93;1.80;;;;;;;;;;6144798;23;20022;-55
2022/06/26 00:45:06;;;;;;;7.95;2.53;;;;;;;;;;6147898;23;20243;-57
2022/06/26 00:47:33;;;;;;;9.43;2.50;;;;;;;;;;6142209;23;20021;-55
2022/06/26 00:50:01;;;;;;;13.00;2.55;;;;;;;;;;6143855;23;20017;-56
2022/06/26 00:52:28;;;;;;;6.30;2.15;;;;;;;;;;6142259;23;20044;-56
2022/06/26 00:54:55;;;;;;;5.90;2.40;;;;;;;;;;6139228;23;20014;-55
2022/06/26 00:57:21;;;;;;;10.13;2.85;;;;;;;;;;6149624;23;20053;-56
2022/06/26 00:59:48;;;;;;;8.70;2.63;;;;;;;;;;6133790;23;20647;-56
2022/06/26 01:02:15;;;;;;;14.05;3.22;;;;;;;;;;6147041;23;20041;-54
2022/06/26 01:04:42;;;;;;;6.72;3.17;;;;;;;;;;6142163;23;20556;-57
2022/06/26 01:07:10;;;;;;;7.18;1.80;;;;;;;;;;6145659;23;20077;-52
2022/06/26 01:09:36;;;;;;;6.40;1.95;;;;;;;;;;6136818;23;20013;-56
2022/06/26 01:12:03;;;;;;;15.82;2.35;;;;;;;;;;6130482;23;20041;-55
2022/06/26 01:14:30;;;;;;;9.48;2.33;;;;;;;;;;6139792;23;20049;-53
2022/06/26 01:16:57;;;;;;;6.28;2.03;;;;;;;;;;6143043;23;20427;-55
2022/06/26 01:19:24;;;;;;;10.55;3.85;;;;;;;;;;6110666;23;20399;-55
2022/06/26 01:21:51;;;;;;;9.63;2.60;;;;;;;;;;6143932;23;20095;-56
2022/06/26 01:24:19;;;;;;;10.52;2.45;;;;;;;;;;6137391;23;20018;-57
2022/06/26 01:26:45;;;;;;;7.82;3.25;;;;;;;;;;6146362;23;20024;-57
2022/06/26 01:29:12;;;;;;;14.77;2.50;;;;;;;;;;6112108;23;20049;-56
2022/06/26 01:31:39;;;;;;;7.15;2.17;;;;;;;;;;6141809;23;20109;-55
2022/06/26 01:34:06;;;;;;;11.80;2.40;;;;;;;;;;6117708;23;20045;-57
2022/06/26 01:36:33;;;;;;;15.60;2.45;;;;;;;;;;6137167;23;20049;-57
2022/06/26 01:38:59;;;;;;;15.77;2.63;;;;;;;;;;6143795;23;20087;-55
2022/06/26 01:41:27;;;;;;;13.27;2.25;;;;;;;;;;6119457;23;20014;-55
2022/06/26 01:43:54;;;;;;;10.52;2.72;;;;;;;;;;6140432;23;20041;-53
2022/06/26 01:46:22;;;;;;;9.80;2.05;;;;;;;;;;6126407;23;20447;-55
2022/06/26 01:48:49;;;;;;;7.10;1.90;;;;;;;;;;6138147;23;20724;-55
2022/06/26 01:51:15;;;;;;;12.77;2.65;;;;;;;;;;6133360;23;20107;-57
2022/06/26 01:53:42;;;;;;;8.18;1.70;;;;;;;;;;6140426;23;20013;-56
2022/06/26 01:56:10;;;;;;;6.82;2.20;;;;;;;;;;6144365;23;20461;-56
2022/06/26 01:58:38;;;;;;;11.48;2.53;;;;;;;;;;6144739;23;20454;-56
2022/06/26 02:01:05;;;;;;;8.32;2.17;;;;;;;;;;6140539;23;20013;-56
2022/06/26 02:03:32;;;;;;;12.57;2.35;;;;;;;;;;6142933;23;20024;-57
2022/06/26 02:05:59;;;;;;;8.77;2.35;;;;;;;;;;6144715;23;20014;-54
2022/06/26 02:08:26;;;;;;;8.73;1.80;;;;;;;;;;6145280;23;20017;-56
2022/06/26 02:13:39;;;;;;;8.23;2.30;;;;;;;;;;6143276;23;20100;-55
2022/06/26 02:16:07;;;;;;;11.43;2.38;;;;;;;;;;6134805;23;20028;-56
2022/06/26 02:18:33;;;;;;;9.27;2.40;;;;;;;;;;6116251;23;20400;-54
2022/06/26 02:21:00;;;;;;;11.35;2.33;;;;;;;;;;6145968;23;20065;-55
2022/06/26 02:23:27;;;;;;;9.80;2.20;;;;;;;;;;6117950;23;20044;-55
2022/06/26 02:25:54;;;;;;;7.13;2.50;;;;;;;;;;6140892;23;20020;-57
2022/06/26 02:28:20;;;;;;;11.15;2.47;;;;;;;;;;6140110;23;20044;-55
2022/06/26 02:30:49;;;;;;;11.55;2.45;;;;;;;;;;6145636;23;20013;-55
2022/06/26 02:33:16;;;;;;;14.52;2.42;;;;;;;;;;6129414;23;20017;-55
2022/06/26 02:35:42;;;;;;;7.05;2.10;;;;;;;;;;6110152;23;20492;-56
2022/06/26 02:38:09;;;;;;;10.48;3.33;;;;;;;;;;6141591;23;20025;-56
2022/06/26 02:40:35;;;;;;;14.85;2.15;;;;;;;;;;6144760;23;20037;-54
2022/06/26 02:43:02;;;;;;;12.48;3.08;;;;;;;;;;6135087;23;20520;-57
2022/06/26 02:45:28;;;;;;;17.55;2.72;;;;;;;;;;6148011;23;20068;-55
2022/06/26 02:47:56;;;;;;;12.23;2.50;;;;;;;;;;6136051;23;20017;-56
2022/06/26 02:50:22;;;;;;;9.90;2.08;;;;;;;;;;6112868;23;20021;-47
2022/06/26 02:52:49;;;;;;;8.10;2.67;;;;;;;;;;6088146;23;20033;-45
2022/06/26 02:55:15;;;;;;;13.52;2.58;;;;;;;;;;6097392;23;20494;-46
2022/06/26 02:57:42;;;;;;;11.07;2.30;;;;;;;;;;6141193;23;20748;-44
2022/06/26 03:00:10;;;;;;;14.55;2.65;;;;;;;;;;6140234;23;20018;-45
2022/06/26 03:02:36;;;;;;;12.48;2.10;;;;;;;;;;6142458;23;20013;-45
2022/06/26 03:05:05;;;;;;;8.10;2.42;;;;;;;;;;6140097;23;20041;-46
2022/06/26 03:07:32;;;;;;;10.30;2.13;;;;;;;;;;6111024;23;20367;-45
2022/06/26 03:09:58;;;;;;;5.50;1.98;;;;;;;;;;6140901;23;20018;-44
2022/06/26 03:12:25;;;;;;;11.25;2.13;;;;;;;;;;6138836;23;20024;-44
2022/06/26 03:14:51;;;;;;;15.90;2.42;;;;;;;;;;6133437;23;20313;-45
2022/06/26 03:17:18;;;;;;;12.65;1.90;;;;;;;;;;6143752;23;20017;-45
2022/06/26 03:19:45;;;;;;;10.77;2.78;;;;;;;;;;6133384;23;20048;-45
2022/06/26 03:22:13;;;;;;;12.27;2.58;;;;;;;;;;6147453;23;20014;-45
2022/06/26 03:24:40;;;;;;;7.13;2.28;;;;;;;;;;6112669;23;20108;-44
2022/06/26 03:27:06;;;;;;;11.02;2.35;;;;;;;;;;6139906;23;20407;-48
2022/06/26 03:29:33;;;;;;;9.25;3.15;;;;;;;;;;6131921;23;20013;-46
2022/06/26 03:31:59;;;;;;;13.93;2.83;;;;;;;;;;6139051;23;20053;-44
2022/06/26 03:34:26;;;;;;;10.60;2.53;;;;;;;;;;6145934;23;20076;-47
2022/06/26 03:36:53;;;;;;;11.70;2.95;;;;;;;;;;6136623;23;20025;-45
2022/06/26 03:39:21;;;;;;;12.52;2.17;;;;;;;;;;6141502;23;20223;-47
2022/06/26 03:42:00;;;;;;;7.78;2.28;;;;;;;;;;6137859;23;20345;-45
2022/06/26 03:44:26;;;;;;;9.65;1.90;;;;;;;;;;6143893;23;20017;-47
2022/06/26 03:46:53;;;;;;;12.60;2.33;;;;;;;;;;6134452;23;20018;-47
2022/06/26 03:49:19;;;;;;;10.80;3.03;;;;;;;;;;6128831;23;20030;-48
2022/06/26 03:51:46;;;;;;;12.80;2.70;;;;;;;;;;6171628;23;20021;-46
2022/06/26 03:54:13;;;;;;;11.48;2.17;;;;;;;;;;6175990;23;20054;-46
2022/06/26 03:56:40;;;;;;;15.55;2.53;;;;;;;;;;6136448;23;20084;-44
2022/06/26 03:59:07;;;;;;;13.80;2.75;;;;;;;;;;6147498;23;20021;-46
2022/06/26 04:01:34;;;;;;;8.55;2.42;;;;;;;;;;6175526;23;20013;-48
2022/06/26 04:04:00;;;;;;;12.10;3.25;;;;;;;;;;6171349;23;20213;-45
2022/06/26 04:06:27;;;;;;;13.13;2.45;;;;;;;;;;6156679;23;20093;-45
2022/06/26 04:08:54;;;;;;;16.10;2.92;;;;;;;;;;6168830;23;20229;-45
2022/06/26 04:11:20;;;;;;;10.52;2.25;;;;;;;;;;6170012;23;20045;-45
2022/06/26 04:13:49;;;;;;;14.10;2.88;;;;;;;;;;6175382;23;20017;-45
2022/06/26 04:16:15;;;;;;;8.80;1.92;;;;;;;;;;6171303;23;20021;-46
2022/06/26 04:18:42;;;;;;;10.38;2.63;;;;;;;;;;6177720;23;20451;-47
2022/06/26 04:21:08;;;;;;;15.27;2.92;;;;;;;;;;6167933;23;20017;-45
2022/06/26 04:23:35;;;;;;;12.65;2.20;;;;;;;;;;6177708;23;20023;-45
2022/06/26 04:26:01;;;;;;;10.27;1.90;;;;;;;;;;6144644;23;20017;-46
2022/06/26 04:28:28;;;;;;;12.70;2.35;;;;;;;;;;6169639;23;20013;-44
2022/06/26 04:30:56;;;;;;;6.32;2.30;;;;;;;;;;6174831;23;20017;-45
2022/06/26 04:33:22;;;;;;;9.63;2.30;;;;;;;;;;6171438;23;20013;-44
2022/06/26 04:35:48;;;;;;;16.05;2.63;;;;;;;;;;6172735;23;20393;-45
2022/06/26 04:38:15;;;;;;;8.25;2.47;;;;;;;;;;6171980;23;20087;-48
2022/06/26 04:40:41;;;;;;;15.60;4.00;;;;;;;;;;6171457;23;20059;-45
2022/06/26 04:43:08;;;;;;;11.38;2.85;;;;;;;;;;6174144;23;20013;-46
2022/06/26 04:45:34;;;;;;;13.38;2.65;;;;;;;;;;6171047;23;20028;-45
2022/06/26 04:48:02;;;;;;;12.07;2.50;;;;;;;;;;6172215;23;20052;-47
2022/06/26 04:50:29;;;;;;;5.53;1.90;;;;;;;;;;6137598;23;20576;-46
2022/06/26 04:52:56;;;;;;;12.30;2.83;;;;;;;;;;6173153;23;20012;-47
2022/06/26 04:55:23;;;;;;;10.63;2.75;;;;;;;;;;6166770;23;20048;-45
2022/06/26 04:57:49;;;;;;;9.32;2.28;;;;;;;;;;6177362;23;20023;-46
2022/06/26 05:00:16;;;;;;;12.02;3.90;;;;;;;;;;6175587;23;20017;-46
2022/06/26 05:02:43;;;;;;;8.75;2.65;;;;;;;;;;6164488;23;20242;-46
2022/06/26 05:05:11;;;;;;;9.52;2.50;;;;;;;;;;6172510;23;20037;-47
2022/06/26 05:07:37;;;;;;;9.15;2.30;;;;;;;;;;6168610;23;20087;-46
2022/06/26 05:10:04;;;;;;;10.63;2.65;;;;;;;;;;6175299;23;20077;-45
2022/06/26 05:12:31;;;;;;;15.35;2.45;;;;;;;;;;6167957;23;20017;-48
2022/06/26 05:14:57;;;;;;;11.80;2.90;;;;;;;;;;6170600;23;20013;-46
2022/06/26 05:17:23;;;;;;;14.77;2.72;;;;;;;;;;6171870;23;20044;-46
2022/06/26 05:19:50;;;;;;;7.60;2.75;;;;;;;;;;6174118;23;20013;-48
2022/06/26 05:22:19;;;;;;;14.15;2.60;;;;;;;;;;6167989;23;20501;-48
2022/06/26 05:24:46;;;;;;;13.30;1.92;;;;;;;;;;6176934;23;20029;-47
2022/06/26 05:27:12;;;;;;;6.88;2.92;;;;;;;;;;6168527;23;20013;-46
2022/06/26 05:29:39;;;;;;;9.07;1.90;;;;;;;;;;6144504;23;20325;-45
2022/06/26 05:32:06;;;;;;;15.05;2.35;;;;;;;;;;6163416;23;20264;-45
2022/06/26 05:34:33;;;;;;;9.98;3.13;;;;;;;;;;6172507;23;20032;-45
2022/06/26 05:37:00;;;;;;;7.88;2.30;;;;;;;;;;6173223;23;20013;-46
2022/06/26 05:39:27;;;;;;;8.13;2.13;;;;;;;;;;6174948;23;20021;-47
2022/06/26 05:41:54;;;;;;;14.43;2.20;;;;;;;;;;6170469;23;20562;-46
2022/06/26 05:44:20;;;;;;;12.73;2.70;;;;;;;;;;6173218;23;20032;-45
2022/06/26 05:46:47;;;;;;;6.15;2.10;;;;;;;;;;6170274;23;20064;-45
2022/06/26 05:49:13;;;;;;;8.98;2.95;;;;;;;;;;6172248;23;20048;-46
2022/06/26 05:51:40;;;;;;;13.25;2.58;;;;;;;;;;6166763;23;20013;-45
2022/06/26 05:54:06;;;;;;;16.05;3.35;;;;;;;;;;6171226;23;20017;-47
2022/06/26 05:56:35;;;;;;;14.52;3.28;;;;;;;;;;6145445;23;20489;-45
2022/06/26 05:59:02;;;;;;;8.37;2.37;;;;;;;;;;6176194;23;20029;-47
2022/06/26 06:01:28;;;;;;;9.55;2.38;;;;;;;;;;6175838;23;20017;-46
2022/06/26 06:03:55;;;;;;;7.18;2.17;;;;;;;;;;6175779;23;20036;-45
2022/06/26 06:06:21;;;;;;;8.73;2.45;;;;;;;;;;6165195;23;20036;-45
2022/06/26 06:08:48;;;;;;;9.00;2.42;;;;;;;;;;6145632;23;20017;-46
2022/06/26 06:11:15;;;;;;;6.97;2.00;;;;;;;;;;6163623;23;20091;-46
2022/06/26 06:13:43;;;;;;;11.50;2.45;;;;;;;;;;6177523;23;20017;-47
2022/06/26 06:16:09;;;;;;;20.13;3.13;;;;;;;;;;6160977;23;20047;-46
2022/06/26 06:18:36;;;;;;;10.70;2.40;;;;;;;;;;6147682;23;20020;-46
2022/06/26 06:21:02;;;;;;;16.63;3.05;;;;;;;;;;6145228;23;20087;-46
2022/06/26 06:23:29;;;;;;;11.52;2.38;;;;;;;;;;6177735;23;20447;-48
2022/06/26 06:25:55;;;;;;;10.45;2.65;;;;;;;;;;6171760;23;20069;-45
2022/06/26 06:28:22;;;;;;;19.48;3.22;;;;;;;;;;6175008;23;20021;-44
2022/06/26 06:30:50;;;;;;;11.05;3.08;;;;;;;;;;6142401;23;20013;-45
2022/06/26 06:33:16;;;;;;;13.65;2.53;;;;;;;;;;6176490;23;20071;-45
2022/06/26 06:35:43;;;;;;;13.13;2.15;;;;;;;;;;6140234;23;20387;-47
2022/06/26 06:38:10;;;;;;;14.88;3.28;;;;;;;;;;6176394;23;20327;-46
2022/06/26 06:40:37;;;;;;;16.00;2.40;;;;;;;;;;6171738;23;20823;-45
2022/06/26 06:43:09;;;;;;;14.77;2.80;;;;;;;;;;6172868;23;20096;-45
2022/06/26 06:45:36;;;;;;;14.15;2.47;;;;;;;;;;6174373;23;20009;-46
2022/06/26 06:48:04;;;;;;;15.45;2.58;;;;;;;;;;6171728;23;20377;-47
2022/06/26 06:50:31;;;;;;;11.95;3.85;;;;;;;;;;6174405;23;20009;-46
2022/06/26 06:52:59;;;;;;;18.95;3.30;;;;;;;;;;6163597;23;20013;-46
2022/06/26 06:55:25;;;;;;;16.58;2.88;;;;;;;;;;6176913;23;20080;-46
2022/06/26 06:57:52;;;;;;;10.37;2.50;;;;;;;;;;6173106;23;20027;-47
2022/06/26 07:00:19;;;;;;;13.50;3.08;;;;;;;;;;6180243;23;20201;-44
2022/06/26 07:02:45;;;;;;;17.52;3.35;;;;;;;;;;6136640;23;20013;-46
2022/06/26 07:05:13;;;;;;;13.38;2.90;;;;;;;;;;6173567;23;20013;-45
2022/06/26 07:07:40;;;;;;;11.35;2.70;;;;;;;;;;6167926;23;20478;-46
2022/06/26 07:10:09;;;;;;;12.88;2.83;;;;;;;;;;6148662;23;20025;-47
2022/06/26 07:12:35;;;;;;;14.83;2.63;;;;;;;;;;6131996;23;20758;-46
2022/06/26 07:15:02;;;;;;;14.50;2.60;;;;;;;;;;6175459;23;20330;-45
2022/06/26 07:17:28;;;;;;;12.90;2.75;;;;;;;;;;6162258;23;20021;-45
2022/06/26 07:19:55;;;;;;;14.32;2.42;;;;;;;;;;6179577;23;20081;-46
2022/06/26 07:22:23;;;;;;;12.38;3.00;;;;;;;;;;6145044;23;20024;-48
2022/06/26 07:24:49;;;;;;;13.80;2.65;;;;;;;;;;6172237;23;20461;-47
2022/06/26 07:27:17;;;;;;;11.43;2.60;;;;;;;;;;6171952;23;20028;-48
2022/06/26 07:29:43;;;;;;;12.25;2.33;;;;;;;;;;6175945;23;20013;-46
2022/06/26 07:32:10;;;;;;;13.23;3.50;;;;;;;;;;6164270;23;20021;-45
2022/06/26 07:34:36;;;;;;;11.85;2.38;;;;;;;;;;6149669;23;20013;-44
2022/06/26 07:37:03;;;;;;;6.95;2.47;;;;;;;;;;6162329;23;20017;-46
2022/06/26 07:39:31;;;;;;;7.85;2.17;;;;;;;;;;6177247;23;20021;-47
2022/06/26 07:41:58;;;;;;;7.82;2.35;;;;;;;;;;6171041;23;20013;-45
2022/06/26 07:44:24;;;;;;;13.20;2.83;;;;;;;;;;6177328;23;20021;-45
2022/06/26 07:46:51;;;;;;;7.88;2.17;;;;;;;;;;6169075;23;20349;-46
2022/06/26 07:49:18;;;;;;;7.53;1.88;;;;;;;;;;6172029;23;20068;-46
2022/06/26 07:51:44;;;;;;;9.73;2.88;;;;;;;;;;6169824;23;20013;-47
2022/06/26 07:54:11;;;;;;;8.55;2.15;;;;;;;;;;6176725;23;20013;-45
2022/06/26 07:56:39;;;;;;;5.30;1.63;;;;;;;;;;6173459;23;20092;-45
2022/06/26 07:59:05;;;;;;;8.18;1.70;;;;;;;;;;6175744;23;20021;-46
2022/06/26 08:01:33;;;;;;;6.15;2.20;;;;;;;;;;6174129;23;20021;-45
2022/06/26 08:04:00;;;;;;;9.57;1.80;;;;;;;;;;6178494;23;20017;-46
2022/06/26 08:06:26;;;;;;;11.88;2.25;;;;;;;;;;6176968;23;20533;-49
2022/06/26 08:08:53;;;;;;;7.78;1.77;;;;;;;;;;6175310;23;20040;-50
2022/06/26 08:11:19;;;;;;;7.00;1.63;;;;;;;;;;6141077;23;20017;-45
2022/06/26 08:13:47;;;;;;;6.35;1.48;;;;;;;;;;6175609;23;20059;-45
2022/06/26 08:16:14;;;;;;;5.35;1.80;;;;;;;;;;6164316;23;20084;-48
2022/06/26 08:18:41;;;;;;;12.05;2.00;;;;;;;;;;6166132;23;20017;-45
2022/06/26 08:23:51;;;;;;;16.05;3.25;;;;;;;;;;6165676;23;20350;-46
2022/06/26 08:26:18;;;;;;;8.30;2.15;;;;;;;;;;6174862;23;20012;-46
2022/06/26 08:28:44;;;;;;;9.48;2.15;;;;;;;;;;6140793;23;20023;-47
2022/06/26 08:31:12;;;;;;;8.48;2.30;;;;;;;;;;6167638;23;20012;-47
2022/06/26 08:33:39;;;;;;;6.40;2.40;;;;;;;;;;6173786;23;20021;-47
2022/06/26 08:36:05;;;;;;;8.60;1.83;;;;;;;;;;6158594;23;20319;-47
2022/06/26 08:38:32;;;;;;;6.85;1.83;;;;;;;;;;6163531;23;20504;-46
2022/06/26 08:40:59;;;;;;;7.57;2.25;;;;;;;;;;6172165;23;20017;-46
2022/06/26 08:43:26;;;;;;;12.50;1.95;;;;;;;;;;6174457;23;20017;-46
2022/06/26 08:45:53;;;;;;;10.07;2.17;;;;;;;;;;6169286;23;20393;-46
2022/06/26 08:48:25;;;;;;;7.78;1.67;;;;;;;;;;6175871;23;20451;-47
2022/06/26 08:50:51;;;;;;;6.93;2.08;;;;;;;;;;6166838;23;20767;-46
2022/06/26 08:53:19;;;;;;;7.30;1.95;;;;;;;;;;6169062;23;20083;-45
2022/06/26 08:55:46;;;;;;;19.40;2.88;;;;;;;;;;6173472;23;20027;-45
2022/06/26 08:58:13;;;;;;;14.25;2.72;;;;;;;;;;6177695;23;20471;-47
2022/06/26 09:00:39;;;;;;;9.63;2.22;;;;;;;;;;6167540;23;20598;-47
2022/06/26 09:03:06;;;;;;;7.05;1.92;;;;;;;;;;6146679;23;20069;-46
2022/06/26 09:05:34;;;;;;;14.48;3.03;;;;;;;;;;6154774;23;20023;-48
2022/06/26 09:08:00;;;;;;;11.73;3.05;;;;;;;;;;6165322;23;20017;-46
2022/06/26 09:10:34;;;;;;;8.10;2.17;;;;;;;;;;6173855;23;20056;-46
2022/06/26 09:13:01;;;;;;;8.65;2.33;;;;;;;;;;6147252;23;20017;-45
2022/06/26 09:15:28;;;;;;;8.00;3.58;;;;;;;;;;6170103;23;20017;-45
2022/06/26 09:17:58;;;;;;;8.10;1.85;;;;;;;;;;6161510;23;20020;-46
2022/06/26 09:20:24;;;;;;;9.98;2.50;;;;;;;;;;6170925;23;20029;-44
2022/06/26 09:22:55;;;;;;;5.60;1.83;;;;;;;;;;6152776;23;20268;-49
2022/06/26 09:25:21;;;;;;;10.02;1.88;;;;;;;;;;6169099;23;20013;-45
2022/06/26 09:27:48;;;;;;;5.90;1.90;;;;;;;;;;6165623;23;20013;-46
2022/06/26 09:30:14;;;;;;;9.05;2.50;;;;;;;;;;6173977;23;20020;-45
2022/06/26 09:32:41;;;;;;;13.52;2.50;;;;;;;;;;6162695;23;20469;-45
2022/06/26 09:35:08;;;;;;;8.57;2.58;;;;;;;;;;6171140;23;20063;-46
2022/06/26 09:37:35;;;;;;;4.72;1.98;;;;;;;;;;6164582;23;20021;-46
2022/06/26 09:40:03;;;;;;;14.88;2.75;;;;;;;;;;6170501;23;20028;-45
2022/06/26 09:42:32;;;;;;;11.27;3.95;;;;;;;;;;6164637;23;20366;-45
2022/06/26 09:44:59;;;;;;;11.25;2.38;;;;;;;;;;6140261;23;20044;-45
2022/06/26 09:47:27;;;;;;;8.77;2.08;;;;;;;;;;6164668;23;20404;-46
2022/06/26 09:49:54;;;;;;;8.50;1.83;;;;;;;;;;6170990;23;20056;-45
2022/06/26 09:52:21;;;;;;;9.40;2.53;;;;;;;;;;6170371;23;20076;-45
2022/06/26 09:54:48;;;;;;;8.23;2.10;;;;;;;;;;6138302;23;20016;-47
2022/06/26 09:57:16;;;;;;;11.15;2.13;;;;;;;;;;6170924;23;20025;-46
2022/06/26 09:59:43;;;;;;;6.47;2.05;;;;;;;;;;6166685;23;20035;-45
2022/06/26 10:07:40;;;;;;;14.68;3.35;;;;;;;;;;6158712;23;20555;-46
2022/06/26 10:10:07;;;;;;;12.02;2.75;;;;;;;;;;6174712;23;20024;-47
2022/06/26 10:12:36;;;;;;;9.80;3.15;;;;;;;;;;6162689;23;20013;-46
2022/06/26 10:15:03;;;;;;;11.20;2.60;;;;;;;;;;6168256;23;20017;-45
2022/06/26 10:17:34;;;;;;;10.13;2.65;;;;;;;;;;6174508;23;20013;-45
2022/06/26 10:20:03;;;;;;;12.57;2.55;;;;;;;;;;6137678;23;20036;-46
2022/06/26 10:22:38;;;;;;;17.50;3.22;;;;;;;;;;6171975;23;20017;-48
2022/06/26 10:25:06;;;;;;;9.52;1.98;;;;;;;;;;6172699;23;20040;-48
2022/06/26 10:27:33;;;;;;;9.65;2.10;;;;;;;;;;6167640;23;20033;-45
2022/06/26 10:30:08;;;;;;;7.60;2.15;;;;;;;;;;6170724;23;20017;-46
2022/06/26 10:32:35;;;;;;;8.80;2.78;;;;;;;;;;6168224;23;20013;-46
2022/06/26 10:35:03;;;;;;;13.57;2.55;;;;;;;;;;6177594;23;20108;-45
2022/06/26 10:37:40;;;;;;;8.35;2.08;;;;;;;;;;6161512;23;20461;-47
2022/06/26 10:40:12;;;;;;;6.30;1.90;;;;;;;;;;6172514;23;20021;-47
2022/06/26 10:42:52;;;;;;;8.73;1.88;;;;;;;;;;6170285;23;20593;-46
2022/06/26 10:45:22;;;;;;;8.88;1.90;;;;;;;;;;6147675;23;20084;-46
2022/06/26 10:47:49;;;;;;;8.50;2.20;;;;;;;;;;6166497;23;20036;-45
2022/06/26 10:50:27;;;;;;;4.18;1.55;;;;;;;;;;6173294;23;20028;-46
2022/06/26 10:52:54;;;;;;;10.40;1.70;;;;;;;;;;6170476;23;20048;-49
2022/06/26 10:55:22;;;;;;;9.07;2.00;;;;;;;;;;6162699;23;20148;-45
2022/06/26 10:57:50;;;;;;;6.78;1.52;;;;;;;;;;6177077;23;20027;-46
2022/06/26 11:00:17;;;;;;;10.05;2.10;;;;;;;;;;6176006;23;20097;-47
2022/06/26 11:02:45;;;;;;;10.93;2.08;;;;;;;;;;6159087;23;20013;-49
2022/06/26 11:05:12;;;;;;;5.75;1.55;;;;;;;;;;6176665;23;20084;-48
2022/06/26 11:07:46;;;;;;;12.73;2.22;;;;;;;;;;6140485;23;20044;-48
2022/06/26 11:10:14;;;;;;;6.90;2.42;;;;;;;;;;6179434;23;20033;-47
2022/06/26 11:12:41;;;;;;;7.07;1.90;;;;;;;;;;6166866;23;20421;-45
2022/06/26 11:15:08;;;;;;;14.40;3.05;;;;;;;;;;6170692;23;20044;-46
2022/06/26 11:17:34;;;;;;;9.35;1.98;;;;;;;;;;6173227;23;20469;-47
2022/06/26 11:22:47;;;;;;;9.55;1.85;;;;;;;;;;6162951;23;20520;-46
2022/06/26 11:25:13;;;;;;;6.22;1.90;;;;;;;;;;6173976;23;20017;-48
2022/06/26 11:27:40;;;;;;;11.60;2.00;;;;;;;;;;6169733;23;20013;-46
2022/06/26 11:30:07;;;;;;;7.07;2.22;;;;;;;;;;6177704;23;20024;-49
2022/06/26 11:32:33;;;;;;;9.55;2.38;;;;;;;;;;6168652;23;20016;-47
2022/06/26 11:35:01;;;;;;;6.78;2.85;;;;;;;;;;6146559;23;20451;-49
2022/06/26 11:37:35;;;;;;;11.40;2.42;;;;;;;;;;6147133;23;20017;-50
2022/06/26 11:40:11;;;;;;;10.80;3.10;;;;;;;;;;6172622;23;20085;-45
2022/06/26 11:42:38;;;;;;;14.15;2.67;;;;;;;;;;6170148;23;20017;-55
2022/06/26 11:45:06;;;;;;;12.00;2.33;;;;;;;;;;6148601;23;20068;-45
2022/06/26 11:47:34;;;;;;;17.70;3.30;;;;;;;;;;6169429;23;20017;-46
2022/06/26 11:50:02;;;;;;;13.07;2.63;;;;;;;;;;6177399;23;20043;-47
2022/06/26 11:52:28;;;;;;;18.13;3.03;;;;;;;;;;6147425;23;20069;-46
2022/06/26 11:54:58;;;;;;;11.30;1.63;;;;;;;;;;6164033;23;20021;-47
2022/06/26 11:57:25;;;;;;;34.97;5.80;;;;;;;;;;6172404;23;20020;-46
2022/06/26 11:59:52;;;;;;;12.95;2.53;;;;;;;;;;6176315;23;20021;-49
2022/06/26 12:02:19;;;;;;;87.63;11.38;;;;;;;;;;6172348;23;20387;-46
2022/06/26 12:04:54;;;;;;;146.30;14.10;;;;;;;;;;6161419;23;20017;-47
2022/06/26 12:07:22;;;;;;;58.70;8.80;;;;;;;;;;6170550;23;20021;-46
2022/06/26 12:09:48;;;;;;;5.78;1.63;;;;;;;;;;6169134;23;20065;-47
2022/06/26 12:12:15;;;;;;;169.10;22.98;;;;;;;;;;6174170;23;20017;-47
2022/06/26 12:14:44;;;;;;;6.55;2.28;;;;;;;;;;6166932;23;20064;-47
2022/06/26 12:17:11;;;;;;;6.55;1.30;;;;;;;;;;6144670;23;20017;-47
2022/06/26 12:19:38;;;;;;;4.57;1.60;;;;;;;;;;6169426;23;20695;-47
2022/06/26 12:22:04;;;;;;;4.97;1.30;;;;;;;;;;6173841;23;20023;-45
2022/06/26 12:24:33;;;;;;;8.23;1.40;;;;;;;;;;6171137;23;20110;-46
2022/06/26 12:26:59;;;;;;;7.00;1.52;;;;;;;;;;6171119;23;20081;-47
2022/06/26 12:29:26;;;;;;;5.97;1.20;;;;;;;;;;6143188;23;20044;-47
2022/06/26 12:31:52;;;;;;;9.40;2.13;;;;;;;;;;6172789;23;20789;-47
2022/06/26 12:34:19;;;;;;;5.63;1.58;;;;;;;;;;6167834;23;20273;-49
2022/06/26 12:36:45;;;;;;;5.70;1.70;;;;;;;;;;6168531;23;20013;-45
2022/06/26 12:39:12;;;;;;;5.50;1.40;;;;;;;;;;6175562;23;20013;-45
2022/06/26 12:41:40;;;;;;;4.00;1.60;;;;;;;;;;6170615;23;20025;-47
2022/06/26 12:44:07;;;;;;;5.03;1.50;;;;;;;;;;6168131;23;20021;-47
2022/06/26 12:46:33;;;;;;;3.85;1.15;;;;;;;;;;6161893;23;20040;-46
2022/06/26 12:49:00;;;;;;;8.52;1.30;;;;;;;;;;6166467;23;20040;-45
2022/06/26 12:51:27;;;;;;;7.07;2.17;;;;;;;;;;6142165;23;20083;-50
2022/06/26 12:53:54;;;;;;;3.30;1.23;;;;;;;;;;6171428;23;20017;-46
2022/06/26 12:56:21;;;;;;;5.70;0.98;;;;;;;;;;6127431;23;20025;-48
2022/06/26 12:58:49;;;;;;;6.47;1.42;;;;;;;;;;6169420;23;20032;-44
2022/06/26 13:01:16;;;;;;;4.22;1.08;;;;;;;;;;6170794;23;20032;-45
2022/06/26 13:03:43;;;;;;;3.90;1.27;;;;;;;;;;6140061;23;20017;-48
2022/06/26 13:06:10;;;;;;;9.68;1.33;;;;;;;;;;6163679;23;20017;-44
2022/06/26 13:08:37;;;;;;;5.65;1.48;;;;;;;;;;6161440;23;20033;-44
2022/06/26 13:13:49;;;;;;;10.02;1.73;;;;;;;;;;6165532;23;20067;-46
2022/06/26 13:16:16;;;;;;;6.88;1.27;;;;;;;;;;6174936;23;20039;-46
2022/06/26 13:18:42;;;;;;;7.57;1.52;;;;;;;;;;6166589;23;20017;-46
2022/06/26 13:21:09;;;;;;;7.43;1.33;;;;;;;;;;6175792;23;20028;-46
2022/06/26 13:23:36;;;;;;;6.57;1.65;;;;;;;;;;6164984;23;20017;-47
2022/06/26 13:26:02;;;;;;;8.88;1.98;;;;;;;;;;6175305;23;20017;-46
2022/06/26 13:28:29;;;;;;;11.88;2.22;;;;;;;;;;6173830;23;20017;-45
2022/06/26 13:30:57;;;;;;;5.38;1.20;;;;;;;;;;6171872;23;20019;-44
2022/06/26 13:33:24;;;;;;;6.22;1.63;;;;;;;;;;6171740;23;20047;-44
2022/06/26 13:35:51;;;;;;;5.93;1.38;;;;;;;;;;6176242;23;20033;-47
2022/06/26 13:38:17;;;;;;;4.28;1.48;;;;;;;;;;6163187;23;20046;-45
2022/06/26 13:40:43;;;;;;;4.47;1.25;;;;;;;;;;6151918;23;20530;-48
2022/06/26 13:43:10;;;;;;;6.13;1.08;;;;;;;;;;6142303;23;20024;-47
2022/06/26 13:45:36;;;;;;;3.13;1.80;;;;;;;;;;6176426;23;20093;-46
2022/06/26 13:48:04;;;;;;;6.00;1.10;;;;;;;;;;6167479;23;20017;-47
2022/06/26 13:50:32;;;;;;;4.25;1.00;;;;;;;;;;6170528;23;20475;-45
2022/06/26 13:52:58;;;;;;;6.93;1.45;;;;;;;;;;6166493;23;20346;-46
2022/06/26 13:55:25;;;;;;;8.30;1.30;;;;;;;;;;6175706;23;20040;-46
2022/06/26 13:57:51;;;;;;;4.25;1.40;;;;;;;;;;6171817;23;20303;-45
2022/06/26 14:00:18;;;;;;;10.07;1.95;;;;;;;;;;6179947;23;20056;-47
2022/06/26 14:02:44;;;;;;;6.40;1.70;;;;;;;;;;6165186;23;20013;-45
2022/06/26 14:05:12;;;;;;;4.97;1.85;;;;;;;;;;6128047;23;20016;-49
2022/06/26 14:07:39;;;;;;;5.57;1.60;;;;;;;;;;6159132;23;20009;-46
2022/06/26 14:10:06;;;;;;;8.32;1.48;;;;;;;;;;6171668;23;20017;-45
2022/06/26 14:12:32;;;;;;;7.22;2.08;;;;;;;;;;6155835;23;20017;-46
2022/06/26 14:14:59;;;;;;;5.43;1.25;;;;;;;;;;6168351;23;20646;-47
2022/06/26 14:17:26;;;;;;;3.67;1.48;;;;;;;;;;6151832;23;20542;-47
2022/06/26 14:19:55;;;;;;;5.00;1.75;;;;;;;;;;6165994;23;20419;-48
2022/06/26 14:27:51;;;;;;;6.32;1.63;;;;;;;;;;6169277;23;20047;-49
2022/06/26 14:30:17;;;;;;;6.85;1.40;;;;;;;;;;6164099;23;20060;-50
2022/06/26 14:32:44;;;;;;;3.85;1.50;;;;;;;;;;6164140;23;20041;-45
2022/06/26 14:35:10;;;;;;;3.10;1.35;;;;;;;;;;6153987;23;20013;-48
2022/06/26 14:37:38;;;;;;;6.32;1.40;;;;;;;;;;6162534;23;20013;-46
2022/06/26 14:40:05;;;;;;;7.13;1.60;;;;;;;;;;6161280;23;20021;-47
2022/06/26 14:42:32;;;;;;;4.40;1.20;;;;;;;;;;6162788;23;20025;-47
2022/06/26 14:44:58;;;;;;;4.60;1.10;;;;;;;;;;6160018;23;20025;-46
2022/06/26 14:47:25;;;;;;;11.38;1.42;;;;;;;;;;6167581;23;20021;-45
2022/06/26 14:49:52;;;;;;;5.72;1.73;;;;;;;;;;6152556;23;20462;-46
2022/06/26 14:52:20;;;;;;;5.35;1.30;;;;;;;;;;6122962;23;20017;-47
2022/06/26 14:54:49;;;;;;;6.70;1.13;;;;;;;;;;6146441;23;20039;-48
2022/06/26 14:57:17;;;;;;;5.72;1.38;;;;;;;;;;6162150;23;20044;-45